Gillette, WY

2:17 PM MDT on May 06, 2015 (GMT -0600)
Johnson County | | Change Station
CLOSE
Current Station
Airport
Location: Buffalo,
Elevation: 4967 ft
Nearby Weather Stations

Elev 4967 ft 44.38 °N, 106.72 °W | Updated 24 minutes ago

Overcast
Overcast
46 °F
Feels Like 36 °F
N
33
Wind Variable Wind from NNW
Gusts 52 mph

Today
High -- | Low -- °F
--% Chance of Precip.
Yesterday
High -- | Low -- °F
Precip. -- in
5:46 AM 8:13 PM
Waning Gibbous, 92% visible
Pressure 29.75 in
Visibility 10.0 miles
Clouds Few 2400 ft
Overcast 6500 ft
Windchill 36 °F
Dew Point 37 °F
Humidity 71%
Rainfall 0.00 in
Snow Depth Not available.
UV 3 out of 12
Pollen 7.60 out of 12
Air Quality Not available.
Flu Activity Sporadic
METAR KBYG 061953Z AUTO 34029G45KT 10SM FEW024 OVC065 08/03 A2980 RMK AO2 PK WND 34045/1948 SLP073 T00780028

More Conditions Fewer Conditions

Pressure 29.75 in
Visibility 10.0 miles
Clouds Few 2400 ft
Overcast 6500 ft
Windchill 36 °F
Dew Point 37 °F
Humidity 71%
Rainfall 0.00 in
Snow Depth Not available.
UV 3 out of 12
Pollen 7.60 out of 12
Air Quality Not available.
Flu Activity Sporadic
METAR KBYG 061953Z AUTO 34029G45KT 10SM FEW024 OVC065 08/03 A2980 RMK AO2 PK WND 34045/1948 SLP073 T00780028

More Conditions Fewer Conditions

10-Day Weather Forecast

Almanac

Astronomy

May. 06, 2015 Rise Set
Actual Time
Civil Twilight
Nautical Twilight
Astronomical Twilight
Moon
Length of Visible Light
Length of Day
Tomorrow will be .
, % of the Moon is Illuminated

Today's Extremes

State Highs State Lows

Community

WunderPhotos

Upload Photos

1,819,006 photos uploaded!

WunderBlogs® & News

Nearby

Air Quality

  Air Quality AQ Index Pollutant
Not available.

Snow Depth

Station Depth Elevation

Earthquake Activity

City Distance Mag. Time & Date
Minimum magnitude displayed is 2.5.

Coastal Water Temperatures

Place Temperature

Stations

Nearby Weather Stations

Station Location Temp. Windchill Dew Point Humidity Wind Precip. Elev Updated Type